Weather at Leeward Point Field

Public forecast

Using degrees Celsius for public forecast. Weather courtesy of forecast.io.

Current aviation weather report (METAR) for Leeward Point Field

Retrieved 2021/06/16 15:51 UTC (16 minutes ago):

MUGM 161551Z 13013KT 10SM FEW030 FEW120 BKN280 32/25 A3003 RMK AO2 SLP169 CB DSNT SW T03170250

Aviation forecast (TAF) for Leeward Point Field

Forecast is more than 12 hours old.

Retrieved 2016/08/22 23:15 UTC (5 years ago):

TAF TAF COR MUGM 222300Z 2223/2323 09007KT 9999 FEW030 SCT120 QNH2994INS BECMG 2301/2303 36006KT 9999 FEW030 SCT280 QNH2995INS BECMG 2315/2317 13014KT 9999 FEW030 SCT280 QNH2999INS FM232100 09011KT 9999 FEW035 SCT120 BKN280 QNH2992INS TN26/2311Z TX35/2318Z COR 2309 FN20026